M I D A S
Marine Information and Data Acquisition System
Tripno 474 of the Zeeleeuw from 2002-04-25 11:45:00 to 2002-04-25 15:45:00
Back to CruiseResearch ActivitiesStationsMapUnderway DataData graphs

EquipmentUnitsComment
TimeDGPSUTC
LatitudeDGPSDM.mWGS84
LongitudeDGPSDM.mWGS84
HeadingGyrodeg 
SOGDGPSknotsSpeed over ground
COGDGPSdegCourse over ground
DepthEcho soundermeters200 kHz
Missing or incorrect values are displayed as -999
Navigation data collected by the RV Zeeleeuw from 2002-04-25 11:45:00 to 2002-04-25 15:45:00
                                                                                    Next 1000 lines
Time Latitude Longitude Heading SOG COG Depth
2002-04-25 11:45:11 51°13.686 2°55.906 106.3 0.1 215.9 11
2002-04-25 11:45:16 51°13.686 2°55.907 105.2 0.1 213.7 11
2002-04-25 11:45:20 51°13.685 2°55.907 104 0.1 214.1 11
2002-04-25 11:45:26 51°13.685 2°55.906 103 0.1 222.7 11
2002-04-25 11:45:30 51°13.685 2°55.906 102.2 0.1 241.3 11
2002-04-25 11:45:35 51°13.685 2°55.905 101.2 0.4 263.4 11
2002-04-25 11:45:41 51°13.684 2°55.903 100.3 0.6 269.7 11
2002-04-25 11:45:47 51°13.685 2°55.9 99.5 1 272.7 11.1
2002-04-25 11:45:51 51°13.686 2°55.897 99 1.2 274.8 11.3
2002-04-25 11:45:56 51°13.686 2°55.893 98.7 1.6 275.5 12.3
2002-04-25 11:46:01 51°13.687 2°55.889 98.5 1.8 276 -999
2002-04-25 11:46:07 51°13.687 2°55.883 98.3 2.1 275.8 -999
2002-04-25 11:46:12 51°13.687 2°55.878 98.2 2.4 276.5 -999
2002-04-25 11:46:17 51°13.687 2°55.872 97.8 2.6 276.6 -999
2002-04-25 11:46:22 51°13.687 2°55.865 97.3 2.9 276.6 -999
2002-04-25 11:46:27 51°13.687 2°55.858 97 3 276.5 -999
2002-04-25 11:46:32 51°13.688 2°55.851 96.7 3.2 275.6 -999
2002-04-25 11:46:37 51°13.689 2°55.844 96.3 3.2 276.1 -999
2002-04-25 11:46:42 51°13.689 2°55.837 96.2 3.2 276.8 -999
2002-04-25 11:46:47 51°13.689 2°55.83 96.2 3.2 275.7 -999
2002-04-25 11:46:52 51°13.689 2°55.823 96 3.2 273.8 -999
2002-04-25 11:46:57 51°13.689 2°55.816 96 3.1 273.9 -999
2002-04-25 11:47:02 51°13.69 2°55.809 95.8 3.1 274.7 -999
2002-04-25 11:47:07 51°13.69 2°55.803 95.7 3 274.4 -999
2002-04-25 11:47:12 51°13.69 2°55.796 95.5 2.9 273.8 -999
2002-04-25 11:47:17 51°13.691 2°55.79 95.5 2.9 274.9 -999
2002-04-25 11:47:22 51°13.69 2°55.784 95.5 2.8 276.8 -999
2002-04-25 11:47:26 51°13.69 2°55.779 95.5 2.7 275.9 15.7
2002-04-25 11:47:31 51°13.69 2°55.774 95.5 2.6 275.2 16.1
2002-04-25 11:47:36 51°13.69 2°55.768 95.5 2.5 275.2 16.4
2002-04-25 11:47:41 51°13.69 2°55.763 95.7 2.5 274.8 16.8
2002-04-25 11:47:46 51°13.69 2°55.758 95.8 2.3 273.4 16.9
2002-04-25 11:47:51 51°13.691 2°55.754 95.5 2.1 272.7 16.6
2002-04-25 11:47:56 51°13.691 2°55.752 94.5 1.5 274.2 16.4
2002-04-25 11:48:01 51°13.691 2°55.751 90.7 0.9 280.4 16.3
2002-04-25 11:48:06 51°13.692 2°55.753 84.5 0.4 36.4 16.3
2002-04-25 11:48:11 51°13.693 2°55.757 76 1.1 63.2 16.8
2002-04-25 11:48:16 51°13.695 2°55.761 66.3 1.8 64.4 17.1
2002-04-25 11:48:21 51°13.697 2°55.764 57.8 2.2 58.4 17.2
2002-04-25 11:48:26 51°13.699 2°55.767 53 2.1 53.2 16.5
2002-04-25 11:48:31 51°13.701 2°55.77 50 1.9 49.8 16
2002-04-25 11:48:36 51°13.702 2°55.772 47.2 1.5 48.6 16
2002-04-25 11:48:41 51°13.703 2°55.773 44 1.1 47.5 16
2002-04-25 11:48:46 51°13.703 2°55.774 41.3 0.5 51.7 16
2002-04-25 11:48:51 51°13.703 2°55.773 39.2 0.1 96.4 16
2002-04-25 11:48:56 51°13.702 2°55.773 38.2 0.5 202.5 16
2002-04-25 11:49:01 51°13.7 2°55.772 37.5 0.9 206.1 15.9
2002-04-25 11:49:07 51°13.698 2°55.77 37.5 1.3 208.5 16.4
2002-04-25 11:49:12 51°13.696 2°55.768 37.8 1.6 210.2 -999
2002-04-25 11:49:17 51°13.694 2°55.766 38.7 1.7 211.2 -999
2002-04-25 11:49:22 51°13.692 2°55.763 39.3 1.7 213.4 -999
2002-04-25 11:49:27 51°13.691 2°55.761 40 1.7 215.4 -999
2002-04-25 11:49:32 51°13.689 2°55.76 40.5 1.5 217.2 -999
2002-04-25 11:49:37 51°13.689 2°55.759 39.5 1.1 219.1 -999
2002-04-25 11:49:42 51°13.689 2°55.759 34.7 0.3 219.3 -999
2002-04-25 11:49:47 51°13.691 2°55.76 28.3 0.5 11.5 -999
2002-04-25 11:49:51 51°13.693 2°55.761 20.3 1.5 17 -999
2002-04-25 11:49:57 51°13.698 2°55.761 10 2.2 10.6 -999
2002-04-25 11:50:02 51°13.703 2°55.761 359.8 3 2.5 -999
2002-04-25 11:50:07 51°13.708 2°55.758 349.3 3.8 352.1 16.4
2002-04-25 11:50:11 51°13.713 2°55.755 340.8 4.2 344.4 15.5
2002-04-25 11:50:16 51°13.719 2°55.75 334.8 4.5 335 14.8
2002-04-25 11:50:21 51°13.724 2°55.744 331 4.7 331.3 13.9
2002-04-25 11:50:26 51°13.73 2°55.738 328.3 4.8 328.7 13.2
2002-04-25 11:50:31 51°13.736 2°55.731 327 5 326.2 13
2002-04-25 11:50:36 51°13.742 2°55.725 326.2 5.2 325 13
2002-04-25 11:50:41 51°13.748 2°55.718 325.3 5.4 324.4 13
2002-04-25 11:50:46 51°13.754 2°55.71 324 5.5 322.8 12.9
2002-04-25 11:50:52 51°13.761 2°55.7 322.8 5.6 321.6 13
2002-04-25 11:50:56 51°13.766 2°55.693 320.8 5.8 319.4 13
2002-04-25 11:51:01 51°13.773 2°55.684 320 5.9 318.3 13
2002-04-25 11:51:06 51°13.779 2°55.676 320.8 6.1 318.7 13
2002-04-25 11:51:11 51°13.786 2°55.667 322.7 6.1 319.7 13.3
2002-04-25 11:51:16 51°13.793 2°55.658 325.5 6.2 322.1 13.4
2002-04-25 11:51:21 51°13.8 2°55.65 328.5 6.3 324.1 13.4
2002-04-25 11:51:26 51°13.808 2°55.643 331.8 6.4 327.8 13.4
2002-04-25 11:51:31 51°13.815 2°55.637 335.3 6.4 330.3 13.4
2002-04-25 11:51:36 51°13.824 2°55.631 338.2 6.4 333.9 13.3
2002-04-25 11:51:41 51°13.832 2°55.625 339 6.5 334.7 13.2
2002-04-25 11:51:46 51°13.84 2°55.619 338.5 6.6 335.3 13.2
2002-04-25 11:51:51 51°13.849 2°55.612 337.7 6.6 334.7 12.8
2002-04-25 11:51:56 51°13.857 2°55.606 338.5 6.7 335.6 12.9
2002-04-25 11:52:01 51°13.866 2°55.6 339.7 6.7 335.9 12.8
2002-04-25 11:52:06 51°13.875 2°55.595 340.7 6.8 337.3 12.8
2002-04-25 11:52:11 51°13.884 2°55.589 340.5 6.8 337.4 12.5
2002-04-25 11:52:16 51°13.892 2°55.582 340.2 6.9 337.1 12.8
2002-04-25 11:52:21 51°13.901 2°55.576 339.3 7 336.3 13.1
2002-04-25 11:52:26 51°13.91 2°55.57 339.3 7 336.4 13.2
2002-04-25 11:52:31 51°13.919 2°55.564 340 7 336.8 13.2
2002-04-25 11:52:36 51°13.928 2°55.559 341 7 338.1 13.1
2002-04-25 11:52:41 51°13.937 2°55.553 341 7 338.3 13.1
2002-04-25 11:52:46 51°13.946 2°55.547 340.5 7 338.4 13
2002-04-25 11:52:50 51°13.954 2°55.542 339.3 7 337.9 13
2002-04-25 11:52:56 51°13.965 2°55.535 339 7 337.3 13.1
2002-04-25 11:53:01 51°13.974 2°55.528 339 7 337.2 13.1
2002-04-25 11:53:06 51°13.983 2°55.522 338.2 7.1 336.6 13.1
2002-04-25 11:53:11 51°13.992 2°55.516 337.5 7.1 336.2 13.6
2002-04-25 11:53:16 51°14 2°55.51 337.8 7.1 336.1 14.3
2002-04-25 11:53:21 51°14.009 2°55.504 338.2 7.1 336.1 13.9
2002-04-25 11:53:26 51°14.018 2°55.497 337.7 7.1 335.6 13.6
2002-04-25 11:53:31 51°14.027 2°55.49 337.3 7.2 335.2 13.6
2002-04-25 11:53:36 51°14.036 2°55.484 337.8 7.1 335.1 13.6
2002-04-25 11:53:41 51°14.046 2°55.477 338.7 7.1 335.6 13.7
2002-04-25 11:53:46 51°14.055 2°55.47 339.7 7.2 336.4 13.9
2002-04-25 11:53:51 51°14.064 2°55.463 339.8 7.2 336.8 13.9
2002-04-25 11:53:56 51°14.073 2°55.457 339.5 7.2 336.5 13.8
2002-04-25 11:54:01 51°14.082 2°55.45 339 7.2 336.2 13.9
2002-04-25 11:54:06 51°14.091 2°55.444 338.3 7.2 335.5 13.9
2002-04-25 11:54:11 51°14.101 2°55.438 337.7 7.2 335.3 13.9
2002-04-25 11:54:16 51°14.11 2°55.431 337.7 7.2 335.2 13.7
2002-04-25 11:54:21 51°14.119 2°55.424 338 7.2 335.3 13.8
2002-04-25 11:54:26 51°14.128 2°55.418 338.8 7.2 335.7 13.9
2002-04-25 11:54:31 51°14.137 2°55.412 339.2 7.2 336.2 13.8
2002-04-25 11:54:36 51°14.146 2°55.405 338.3 7.1 335.7 13.9
2002-04-25 11:54:41 51°14.155 2°55.398 337.7 7.1 335.2 13.8
2002-04-25 11:54:46 51°14.163 2°55.391 336.3 7.1 333.7 13.5
2002-04-25 11:54:50 51°14.171 2°55.386 335 7.1 332.9 13.7
2002-04-25 11:54:55 51°14.179 2°55.378 333.3 7.1 331.5 13.9
2002-04-25 11:55:01 51°14.189 2°55.368 331.8 7.1 330.3 13.6
2002-04-25 11:55:06 51°14.197 2°55.36 330 7.1 328.1 13.4
2002-04-25 11:55:11 51°14.205 2°55.351 328.2 7.1 326.8 13.5
2002-04-25 11:55:16 51°14.213 2°55.341 326 7.1 324.2 13.9
2002-04-25 11:55:21 51°14.221 2°55.332 324 7.1 322.6 13.9
2002-04-25 11:55:26 51°14.228 2°55.321 322.2 7.2 320.2 13.8
2002-04-25 11:55:31 51°14.236 2°55.31 321 7.3 318.8 13.3
2002-04-25 11:55:35 51°14.242 2°55.301 319.8 7.5 317.3 13.3
2002-04-25 11:55:41 51°14.251 2°55.286 318.7 7.7 316.4 13.3
2002-04-25 11:55:46 51°14.259 2°55.274 317.3 7.8 315.2 13.1
2002-04-25 11:55:51 51°14.266 2°55.261 316.2 7.9 314.3 13.3
2002-04-25 11:55:56 51°14.274 2°55.248 315 8 313.5 13.2
2002-04-25 11:56:01 51°14.281 2°55.235 314.3 8.1 312.5 13.8
2002-04-25 11:56:06 51°14.289 2°55.221 313.5 8.1 311.5 13.7
2002-04-25 11:56:11 51°14.296 2°55.208 312.7 8.2 310.7 13.5
2002-04-25 11:56:16 51°14.304 2°55.193 311.7 8.2 309.6 13.1
2002-04-25 11:56:21 51°14.31 2°55.179 310.2 8.3 308.6 13.4
2002-04-25 11:56:26 51°14.317 2°55.164 308.2 8.3 306.8 13.3
2002-04-25 11:56:31 51°14.324 2°55.149 307.3 8.3 305.8 13.4
2002-04-25 11:56:36 51°14.331 2°55.134 307 8.4 305.2 13.2
2002-04-25 11:56:41 51°14.337 2°55.118 307.3 8.4 304.9 13.2
2002-04-25 11:56:46 51°14.344 2°55.103 306.8 8.4 304.5 13
2002-04-25 11:56:51 51°14.35 2°55.087 306 8.4 303.8 13.1
2002-04-25 11:56:56 51°14.357 2°55.072 305.2 8.4 303.2 13.4
2002-04-25 11:57:01 51°14.363 2°55.056 304.3 8.4 302.9 13.2
2002-04-25 11:57:06 51°14.37 2°55.041 305 8.4 303.1 13.2
2002-04-25 11:57:12 51°14.378 2°55.023 306 8.4 304.3 12.9
2002-04-25 11:57:16 51°14.384 2°55.01 306.7 8.7 306.6 12.8
2002-04-25 11:57:21 51°14.392 2°54.994 306.5 8.9 307.8 13.1
2002-04-25 11:57:26 51°14.4 2°54.978 305.2 9.3 307.8 13
2002-04-25 11:57:31 51°14.408 2°54.96 302.3 9.5 306.7 13
2002-04-25 11:57:36 51°14.415 2°54.942 298.3 9.6 303.3 13
2002-04-25 11:57:41 51°14.421 2°54.923 294 9.7 300.5 13
2002-04-25 11:57:46 51°14.426 2°54.902 288.5 9.8 296.7 13
2002-04-25 11:57:51 51°14.43 2°54.881 284 10 290.8 13
2002-04-25 11:57:56 51°14.433 2°54.858 281.3 10.3 284.8 13
2002-04-25 11:58:01 51°14.436 2°54.835 279.3 10.5 283.3 12.9
2002-04-25 11:58:06 51°14.438 2°54.812 276.5 10.7 279.4 12.8
2002-04-25 11:58:11 51°14.44 2°54.788 276.5 10.9 278.8 12.8
2002-04-25 11:58:16 51°14.443 2°54.764 277 11 278.6 12.8
2002-04-25 11:58:21 51°14.445 2°54.739 278.3 11.1 279.4 12.9
2002-04-25 11:58:26 51°14.448 2°54.715 277.8 11.2 280 12.8
2002-04-25 11:58:30 51°14.45 2°54.695 276.2 11.3 279.1 12.9
2002-04-25 11:58:36 51°14.452 2°54.665 275.5 11.3 277.7 12.9
2002-04-25 11:58:42 51°14.454 2°54.635 275.3 11.3 277.2 12.9
2002-04-25 11:58:46 51°14.456 2°54.615 275.7 11.4 276.7 12.8
2002-04-25 11:58:50 51°14.457 2°54.596 274.8 11.3 276.4 12.7
2002-04-25 11:58:56 51°14.457 2°54.566 270.5 11.2 272.5 12.7
2002-04-25 11:59:01 51°14.455 2°54.542 265.2 11.1 268.2 12.4
2002-04-25 11:59:06 51°14.452 2°54.519 258.3 10.9 261.7 12.7
2002-04-25 11:59:11 51°14.446 2°54.497 252.2 10.8 254.6 12.7
2002-04-25 11:59:16 51°14.44 2°54.476 246.2 10.7 246.7 12.6
2002-04-25 11:59:21 51°14.433 2°54.455 243 10.7 242.9 12.6
2002-04-25 11:59:26 51°14.425 2°54.435 240.8 10.8 239.6 12.5
2002-04-25 11:59:31 51°14.417 2°54.414 240.7 10.8 239.1 12.5
2002-04-25 11:59:36 51°14.41 2°54.393 242.3 10.9 240.3 12.5
2002-04-25 11:59:41 51°14.403 2°54.371 243.5 10.9 242 12.4
2002-04-25 11:59:46 51°14.396 2°54.349 243.8 11 243 12.3
2002-04-25 11:59:51 51°14.389 2°54.328 243.3 11 242.7 12.3
2002-04-25 11:59:56 51°14.381 2°54.306 242.8 11 241.7 12.3
2002-04-25 12:00:01 51°14.374 2°54.285 242.3 11 241.4 12.2
2002-04-25 12:00:06 51°14.366 2°54.264 242.2 11.1 240.4 12.1
2002-04-25 12:00:11 51°14.358 2°54.243 240.5 11.1 240 12.1
2002-04-25 12:00:16 51°14.35 2°54.223 239.2 11 237.7 12.1
2002-04-25 12:00:21 51°14.341 2°54.203 238.3 11 236.6 12.1
2002-04-25 12:00:26 51°14.333 2°54.183 237.2 11 235.7 12.1
2002-04-25 12:00:31 51°14.324 2°54.163 236.8 11 234.6 12.1
2002-04-25 12:00:36 51°14.315 2°54.143 236.2 11.1 234.3 12
2002-04-25 12:00:41 51°14.306 2°54.124 236.2 11.1 233.9 12
2002-04-25 12:00:46 51°14.297 2°54.104 236.3 11.1 234.2 12.1
2002-04-25 12:00:51 51°14.288 2°54.084 236.5 11 234.4 12
2002-04-25 12:00:56 51°14.279 2°54.064 237.2 11.1 235.2 12
2002-04-25 12:01:00 51°14.272 2°54.048 237.7 11.1 235.2 12
2002-04-25 12:01:06 51°14.262 2°54.024 237.3 11.1 235.7 12
2002-04-25 12:01:11 51°14.253 2°54.003 237.7 11.1 235.5 12
2002-04-25 12:01:16 51°14.244 2°53.983 237.7 11.1 235.7 12
2002-04-25 12:01:20 51°14.238 2°53.967 237.7 11.1 236 12
2002-04-25 12:01:26 51°14.228 2°53.943 238.2 11 236.4 12
2002-04-25 12:01:31 51°14.219 2°53.922 238 11 236.8 12
2002-04-25 12:01:36 51°14.211 2°53.903 237.8 11 236.2 12
2002-04-25 12:01:41 51°14.202 2°53.882 237.5 11 236.2 12
2002-04-25 12:01:45 51°14.195 2°53.866 237.3 11 235.6 12
2002-04-25 12:01:50 51°14.187 2°53.845 237.8 11 235.4 12
2002-04-25 12:01:56 51°14.177 2°53.821 237.5 11 235.9 12
2002-04-25 12:02:01 51°14.168 2°53.801 237.7 11 235.8 11.9
2002-04-25 12:02:06 51°14.16 2°53.78 238.2 11 236.2 12
2002-04-25 12:02:11 51°14.151 2°53.759 237.8 11 236 12
2002-04-25 12:02:16 51°14.143 2°53.739 238 11 236.1 12
2002-04-25 12:02:21 51°14.134 2°53.718 238.3 11.1 236.1 12
2002-04-25 12:02:26 51°14.125 2°53.697 238.2 11.3 236.2 11.9
2002-04-25 12:02:31 51°14.116 2°53.676 237.8 11.4 236.2 12.1
2002-04-25 12:02:36 51°14.107 2°53.655 237.8 11.5 236.2 12.1
2002-04-25 12:02:41 51°14.098 2°53.633 237.8 11.6 236.1 12.1
2002-04-25 12:02:46 51°14.089 2°53.611 237.8 11.7 236.1 12.1
2002-04-25 12:02:51 51°14.08 2°53.589 237.8 11.7 236 12.1
2002-04-25 12:02:56 51°14.071 2°53.568 237.8 11.8 235.9 12.1
2002-04-25 12:03:01 51°14.062 2°53.546 237.7 11.8 235.8 12.1
2002-04-25 12:03:06 51°14.052 2°53.525 237.7 11.9 235.7 12.1
2002-04-25 12:03:11 51°14.043 2°53.503 237.5 11.9 236.1 12.1
2002-04-25 12:03:16 51°14.034 2°53.481 237.5 11.9 235.9 12.1
2002-04-25 12:03:21 51°14.025 2°53.459 238.2 12 236 12.1
2002-04-25 12:03:26 51°14.015 2°53.437 238 12 236.2 12.1
2002-04-25 12:03:31 51°14.006 2°53.415 237.7 12 235.9 12.1
2002-04-25 12:03:36 51°13.997 2°53.392 237.8 12 236.3 12.1
2002-04-25 12:03:41 51°13.987 2°53.371 237.5 12 235.9 12.1
2002-04-25 12:03:46 51°13.978 2°53.349 237.5 12 236.1 12.1
2002-04-25 12:03:51 51°13.969 2°53.327 238.3 12 236.2 12.2
2002-04-25 12:03:56 51°13.96 2°53.304 238.2 12 236.5 12.2
2002-04-25 12:04:01 51°13.95 2°53.282 238.2 12 236.6 12.3
2002-04-25 12:04:05 51°13.943 2°53.265 238.7 12 236.5 12.3
2002-04-25 12:04:11 51°13.932 2°53.238 239.5 12 237.5 12.3
2002-04-25 12:04:16 51°13.924 2°53.215 240.3 12 238.8 12.3
2002-04-25 12:04:21 51°13.915 2°53.193 240.5 12 239.1 12.3
2002-04-25 12:04:26 51°13.907 2°53.17 241 12 239.9 12.3
2002-04-25 12:04:31 51°13.898 2°53.147 241.3 12 240.1 12.4
2002-04-25 12:04:36 51°13.891 2°53.123 241.5 12 240.3 12.4
2002-04-25 12:04:41 51°13.883 2°53.099 241.5 12 240.4 12.4
2002-04-25 12:04:45 51°13.876 2°53.079 241.8 12 240.4 12.4
2002-04-25 12:04:51 51°13.866 2°53.052 241.5 12 240.3 12.4
2002-04-25 12:04:56 51°13.858 2°53.029 241.3 12 240.1 12.4
2002-04-25 12:05:01 51°13.849 2°53.007 241.2 12 240 12.5
2002-04-25 12:05:06 51°13.841 2°52.984 241.2 12 240 12.5
2002-04-25 12:05:11 51°13.832 2°52.962 241.2 12 239.7 12.5
2002-04-25 12:05:16 51°13.824 2°52.939 241.3 12 240.4 12.5
2002-04-25 12:05:21 51°13.815 2°52.917 241.2 12 239.9 12.5
2002-04-25 12:05:26 51°13.807 2°52.894 240.7 12 239.4 12.6
2002-04-25 12:05:31 51°13.798 2°52.871 241.2 12 239.4 12.6
2002-04-25 12:05:36 51°13.79 2°52.849 241.2 12 239.6 12.6
2002-04-25 12:05:41 51°13.782 2°52.826 241.2 12 239.8 12.6
2002-04-25 12:05:46 51°13.773 2°52.803 241 12 239.2 12.6
2002-04-25 12:05:51 51°13.765 2°52.78 240.8 12 240 12.7
2002-04-25 12:05:56 51°13.756 2°52.758 241 12 239.8 12.7
2002-04-25 12:06:01 51°13.748 2°52.735 241.3 12 240 12.8
2002-04-25 12:06:06 51°13.739 2°52.712 241 12 239.6 12.8
2002-04-25 12:06:11 51°13.731 2°52.688 240.8 12 239.5 12.8
2002-04-25 12:06:16 51°13.723 2°52.665 240.8 12 239.4 12.8
2002-04-25 12:06:21 51°13.715 2°52.642 241 12 239.4 12.8
2002-04-25 12:06:26 51°13.706 2°52.62 240.7 12 239.6 12.8
2002-04-25 12:06:31 51°13.698 2°52.598 240.5 12 239.5 12.7
2002-04-25 12:06:36 51°13.689 2°52.575 240.5 12 239.5 12.8
2002-04-25 12:06:41 51°13.681 2°52.553 240.5 11.9 239.2 12.5
2002-04-25 12:06:45 51°13.674 2°52.534 240.8 11.9 239.5 12.8
2002-04-25 12:06:51 51°13.664 2°52.506 240.8 11.9 239.8 12.8
2002-04-25 12:06:56 51°13.656 2°52.484 241 11.9 239.9 12.8
2002-04-25 12:07:01 51°13.647 2°52.461 240.8 12 240 12.9
2002-04-25 12:07:06 51°13.639 2°52.438 241 12 239.4 12.9
2002-04-25 12:07:11 51°13.631 2°52.415 241.2 12 239.7 12.9
2002-04-25 12:07:16 51°13.622 2°52.392 240.7 12 239.6 13
2002-04-25 12:07:21 51°13.614 2°52.369 240.8 12 239.6 13
2002-04-25 12:07:25 51°13.607 2°52.35 241 12 239.7 13
2002-04-25 12:07:31 51°13.597 2°52.323 241 12 239.7 13
2002-04-25 12:07:36 51°13.588 2°52.3 240.7 12.1 239.6 13
2002-04-25 12:07:41 51°13.58 2°52.278 241 12.1 239.3 13
2002-04-25 12:07:45 51°13.573 2°52.26 240.8 12.1 239.2 13
2002-04-25 12:07:51 51°13.563 2°52.231 240.8 12.1 239.1 13
2002-04-25 12:07:56 51°13.554 2°52.207 240.8 12.1 239.6 13
2002-04-25 12:08:01 51°13.546 2°52.185 240.7 12 239.4 13.1
2002-04-25 12:08:06 51°13.537 2°52.162 240.7 12.1 239.3 13.1
2002-04-25 12:08:11 51°13.528 2°52.14 240.7 12 239 13.1
2002-04-25 12:08:16 51°13.52 2°52.117 240.7 12 239.3 13
2002-04-25 12:08:21 51°13.511 2°52.094 240.8 12 239.1 13
2002-04-25 12:08:26 51°13.503 2°52.071 241 12 239.4 13.1
2002-04-25 12:08:31 51°13.494 2°52.049 241 12 239.2 13.1
2002-04-25 12:08:36 51°13.486 2°52.026 241.2 12 239.3 13.1
2002-04-25 12:08:41 51°13.477 2°52.003 240.7 12 239.2 13.1
2002-04-25 12:08:46 51°13.468 2°51.98 240.8 12 239 13.1
2002-04-25 12:08:51 51°13.46 2°51.957 241.2 12 239.1 13.1
2002-04-25 12:08:56 51°13.452 2°51.933 240.8 12 239.5 13.1
2002-04-25 12:09:01 51°13.443 2°51.91 241.3 12 239.5 13.1
2002-04-25 12:09:06 51°13.435 2°51.887 241.3 12 239.7 13.1
2002-04-25 12:09:11 51°13.427 2°51.864 241.2 12 239.4 13.1
2002-04-25 12:09:16 51°13.418 2°51.841 241 12.1 239.6 13.1
2002-04-25 12:09:21 51°13.409 2°51.818 240.8 12.1 239.3 13.1
2002-04-25 12:09:26 51°13.401 2°51.795 240.8 12.1 239.2 13.1
2002-04-25 12:09:31 51°13.392 2°51.773 240.7 12.1 239 13
2002-04-25 12:09:36 51°13.384 2°51.75 240.7 12.1 239.2 13
2002-04-25 12:09:41 51°13.375 2°51.727 241 12.1 239.4 13
2002-04-25 12:09:46 51°13.366 2°51.705 240.8 12.1 239.1 13
2002-04-25 12:09:51 51°13.358 2°51.681 241.2 12.1 239.4 13
2002-04-25 12:09:56 51°13.35 2°51.659 241.2 12 239.6 13
2002-04-25 12:10:01 51°13.341 2°51.636 240.8 12 239.5 13
2002-04-25 12:10:06 51°13.332 2°51.613 240.5 12 239.1 13
2002-04-25 12:10:11 51°13.323 2°51.591 240.5 12 238.5 13
2002-04-25 12:10:16 51°13.315 2°51.567 240.8 12 239.3 13
2002-04-25 12:10:21 51°13.306 2°51.545 240.7 12 238.7 13
2002-04-25 12:10:26 51°13.298 2°51.521 240.7 12 239 13
2002-04-25 12:10:31 51°13.289 2°51.498 240.8 12 238.9 13
2002-04-25 12:10:36 51°13.281 2°51.476 240.7 12 239 12.9
2002-04-25 12:10:41 51°13.272 2°51.453 241 12 239.1 12.9
2002-04-25 12:10:46 51°13.264 2°51.431 240.8 12 238.8 12.9
2002-04-25 12:10:51 51°13.255 2°51.409 240.5 11.9 238.5 12.9
2002-04-25 12:10:56 51°13.246 2°51.386 240.3 11.9 238.8 12.9
2002-04-25 12:11:01 51°13.238 2°51.364 240.7 11.9 238.7 12.9
2002-04-25 12:11:06 51°13.229 2°51.342 240.8 12 239 12.9
2002-04-25 12:11:11 51°13.221 2°51.319 241 12 239.2 12.9
2002-04-25 12:11:16 51°13.212 2°51.297 241 12 239.2 12.9
2002-04-25 12:11:21 51°13.204 2°51.274 240.8 12 239.4 13
2002-04-25 12:11:26 51°13.196 2°51.25 241 12 239.2 13
2002-04-25 12:11:31 51°13.187 2°51.227 240.8 12 239.2 13
2002-04-25 12:11:36 51°13.179 2°51.204 241 12 239.2 13
2002-04-25 12:11:41 51°13.17 2°51.182 240.8 12 239.3 13
2002-04-25 12:11:46 51°13.161 2°51.16 240.7 12 239.1 13
2002-04-25 12:11:51 51°13.153 2°51.137 240.5 12 239.1 13.1
2002-04-25 12:11:56 51°13.144 2°51.115 240.7 12 239.1 13.1
2002-04-25 12:12:01 51°13.136 2°51.092 240.8 12 239.2 13
2002-04-25 12:12:06 51°13.127 2°51.069 240.8 12 239.3 13.1
2002-04-25 12:12:11 51°13.119 2°51.047 241 12 239.5 13.1
2002-04-25 12:12:16 51°13.11 2°51.024 241.2 12 239.6 13.1
2002-04-25 12:12:21 51°13.102 2°50.999 241.2 12.1 239.8 13.1
2002-04-25 12:12:26 51°13.094 2°50.975 241 12.1 239.6 13.1
2002-04-25 12:12:31 51°13.086 2°50.952 240.7 12.1 239.7 13.1
2002-04-25 12:12:36 51°13.077 2°50.93 240.7 12.1 239.2 13.1
2002-04-25 12:12:41 51°13.068 2°50.907 240.7 12.1 239.2 13.1
2002-04-25 12:12:46 51°13.059 2°50.886 240.7 12.1 239.2 13.1
2002-04-25 12:12:51 51°13.052 2°50.864 240.8 12.1 239.1 13.1
2002-04-25 12:12:56 51°13.043 2°50.84 240.5 12.1 239.2 13.1
2002-04-25 12:13:01 51°13.035 2°50.816 240.5 12.2 239.2 13
2002-04-25 12:13:06 51°13.026 2°50.793 240.8 12.2 239.2 13
2002-04-25 12:13:11 51°13.018 2°50.77 240.8 12.2 239.1 13.1
2002-04-25 12:13:16 51°13.009 2°50.747 240.7 12.1 239.2 13.1
2002-04-25 12:13:21 51°13 2°50.724 241 12.1 239.1 13
2002-04-25 12:13:26 51°12.992 2°50.701 241 12.1 239.4 13.1
2002-04-25 12:13:31 51°12.983 2°50.678 241.2 12.1 239.4 13.1
2002-04-25 12:13:36 51°12.975 2°50.654 241 12.2 239.2 13.1
2002-04-25 12:13:41 51°12.966 2°50.631 240.8 12.1 239.2 13.1
2002-04-25 12:13:46 51°12.957 2°50.609 240.7 12.2 238.9 13.1
2002-04-25 12:13:51 51°12.949 2°50.586 241 12.2 239.4 13.1
2002-04-25 12:13:56 51°12.939 2°50.563 241 12.2 239.2 13.1
2002-04-25 12:14:01 51°12.93 2°50.539 240.8 12.2 239.4 13.1
2002-04-25 12:14:06 51°12.922 2°50.515 241.2 12.2 239.1 13.1
2002-04-25 12:14:11 51°12.913 2°50.492 241.2 12.2 239.1 13.1
2002-04-25 12:14:16 51°12.904 2°50.469 240.8 12.2 239 13.1
2002-04-25 12:14:21 51°12.895 2°50.447 240.7 12.2 238.7 13.1
2002-04-25 12:14:26 51°12.887 2°50.424 241.2 12.2 239.4 13.1
2002-04-25 12:14:31 51°12.878 2°50.401 241 12.2 239 13
2002-04-25 12:14:36 51°12.87 2°50.378 241 12.2 239.4 13
2002-04-25 12:14:41 51°12.861 2°50.355 241.2 12.2 239.3 13.1
2002-04-25 12:14:46 51°12.852 2°50.331 240.8 12.2 239.3 13.1
2002-04-25 12:14:51 51°12.844 2°50.308 240.8 12.2 239.3 13.1
2002-04-25 12:14:56 51°12.835 2°50.285 240.8 12.2 238.9 13.1
2002-04-25 12:15:01 51°12.826 2°50.262 240.8 12.2 239 13.1
2002-04-25 12:15:05 51°12.819 2°50.244 241 12.2 239.1 13.1
2002-04-25 12:15:11 51°12.809 2°50.214 241.2 12.1 239 13.1
2002-04-25 12:15:16 51°12.801 2°50.191 241 12.1 239.1 13.1
2002-04-25 12:15:21 51°12.792 2°50.168 240.5 12.1 239 13
2002-04-25 12:15:26 51°12.783 2°50.145 240.8 12.1 238.8 13.1
2002-04-25 12:15:31 51°12.775 2°50.123 241 12.1 238.9 13.1
2002-04-25 12:15:36 51°12.766 2°50.1 240.7 12.1 238.8 13
2002-04-25 12:15:41 51°12.757 2°50.077 241 12.1 239.1 13.1
2002-04-25 12:15:46 51°12.749 2°50.053 242 12.1 239.5 13.1
2002-04-25 12:15:51 51°12.741 2°50.029 242.7 12.1 240.5 13
2002-04-25 12:15:56 51°12.733 2°50.006 243 12.1 240.8 13.1
2002-04-25 12:16:01 51°12.725 2°49.982 242.8 12.1 241.5 13.1
2002-04-25 12:16:06 51°12.717 2°49.958 243 12.1 241.1 13.1
2002-04-25 12:16:11 51°12.708 2°49.935 243 12.2 241.3 13.1
2002-04-25 12:16:16 51°12.701 2°49.911 243.3 12.2 241.5 13.1
2002-04-25 12:16:21 51°12.692 2°49.888 243.3 12.2 241.3 13.1
2002-04-25 12:16:26 51°12.684 2°49.864 243.2 12.2 241.7 13.1
2002-04-25 12:16:31 51°12.676 2°49.84 243 12.2 241.3 13
2002-04-25 12:16:36 51°12.668 2°49.816 243 12.3 241.1 13.2
2002-04-25 12:16:41 51°12.659 2°49.793 243 12.3 241.1 13.2
2002-04-25 12:16:46 51°12.651 2°49.768 243.2 12.3 241.3 13.2
2002-04-25 12:16:51 51°12.643 2°49.745 243.3 12.3 241.3 13.2
2002-04-25 12:16:56 51°12.635 2°49.721 243.2 12.3 241.5 13.2
2002-04-25 12:17:01 51°12.627 2°49.698 242.8 12.2 241.2 13.2
2002-04-25 12:17:06 51°12.619 2°49.674 243 12.2 241.3 13.2
2002-04-25 12:17:11 51°12.61 2°49.651 243 12.2 241 13.2
2002-04-25 12:17:16 51°12.602 2°49.628 242.5 12.2 240.7 13
2002-04-25 12:17:21 51°12.594 2°49.604 243 12.2 241.1 13.1
2002-04-25 12:17:26 51°12.585 2°49.581 242.8 12.3 241.1 13.2
2002-04-25 12:17:31 51°12.577 2°49.557 242.8 12.3 241.2 13.2
2002-04-25 12:17:36 51°12.569 2°49.534 242.5 12.3 240.7 13.1
2002-04-25 12:17:41 51°12.561 2°49.509 242.3 12.3 240.9 13.2
2002-04-25 12:17:46 51°12.553 2°49.485 242.8 12.3 240.8 13.2
2002-04-25 12:17:51 51°12.544 2°49.461 242.5 12.3 240.7 12.9
2002-04-25 12:17:55 51°12.538 2°49.441 242.8 12.3 241 13.2
2002-04-25 12:18:01 51°12.528 2°49.413 242.7 12.3 241.1 13.1
2002-04-25 12:18:06 51°12.52 2°49.389 242.5 12.3 241.3 13.2
2002-04-25 12:18:11 51°12.512 2°49.365 242.7 12.2 241.2 13.3
2002-04-25 12:18:16 51°12.504 2°49.342 242.7 12.2 241.2 13.2
2002-04-25 12:18:21 51°12.496 2°49.318 243.2 12.2 241.8 13.1
2002-04-25 12:18:26 51°12.487 2°49.296 242.7 12.2 241.4 13.2
2002-04-25 12:18:31 51°12.479 2°49.272 242.3 12.2 241.1 13.2
2002-04-25 12:18:36 51°12.471 2°49.248 242.8 12.2 241.1 13.2
2002-04-25 12:18:41 51°12.463 2°49.225 243.2 12.2 241.4 13.2
2002-04-25 12:18:46 51°12.454 2°49.202 242.8 12.1 240.9 13.2
2002-04-25 12:18:51 51°12.446 2°49.179 242.5 12.1 240.8 13.2
2002-04-25 12:18:56 51°12.438 2°49.155 243.2 12.1 241 13.2
2002-04-25 12:19:01 51°12.43 2°49.132 242.7 12.1 240.9 13.2
2002-04-25 12:19:06 51°12.422 2°49.108 243 12.1 241 13.2
2002-04-25 12:19:11 51°12.414 2°49.085 243.2 12.1 241.2 13.2
2002-04-25 12:19:16 51°12.406 2°49.062 243.2 12.1 241.4 12.9
2002-04-25 12:19:21 51°12.398 2°49.038 243 12.1 241.2 13.2
2002-04-25 12:19:26 51°12.39 2°49.014 242.8 12.2 241.1 13.2
2002-04-25 12:19:31 51°12.382 2°48.99 243.2 12.2 241.4 13.2
2002-04-25 12:19:36 51°12.373 2°48.967 243 12.2 241 13
2002-04-25 12:19:41 51°12.365 2°48.943 242.7 12.2 241.3 13.2
2002-04-25 12:19:46 51°12.357 2°48.92 243 12.2 241.3 13.2
2002-04-25 12:19:51 51°12.349 2°48.896 243 12.2 241.6 13.3
2002-04-25 12:19:56 51°12.341 2°48.873 243 12.2 241.4 13.2
2002-04-25 12:20:01 51°12.333 2°48.848 243.2 12.2 241.7 13.1
2002-04-25 12:20:06 51°12.324 2°48.825 243.2 12.2 241.5 13.2
2002-04-25 12:20:11 51°12.317 2°48.801 243 12.3 241.5 13.2
2002-04-25 12:20:16 51°12.308 2°48.778 242.5 12.3 241.4 13.2
2002-04-25 12:20:21 51°12.3 2°48.754 242.7 12.3 241.2 13.2
2002-04-25 12:20:26 51°12.292 2°48.731 242.7 12.2 240.8 13.3
2002-04-25 12:20:31 51°12.284 2°48.707 242.5 12.3 241.1 13.2
2002-04-25 12:20:36 51°12.275 2°48.684 242.8 12.3 241 13.3
2002-04-25 12:20:41 51°12.267 2°48.66 242.8 12.3 241 13.2
2002-04-25 12:20:46 51°12.259 2°48.637 242.7 12.3 241 13.2
2002-04-25 12:20:50 51°12.252 2°48.618 243.2 12.3 241.3 13.3
2002-04-25 12:20:56 51°12.243 2°48.59 243.2 12.2 241.6 13.3
2002-04-25 12:21:01 51°12.235 2°48.566 243.3 12.2 241.8 13.3
2002-04-25 12:21:06 51°12.227 2°48.542 243 12.2 241.7 13.1
2002-04-25 12:21:11 51°12.219 2°48.518 243.3 12.2 242 13.1
2002-04-25 12:21:16 51°12.211 2°48.495 243 12.2 241.9 13.3
2002-04-25 12:21:21 51°12.203 2°48.471 242.5 12.2 241.5 13.1
2002-04-25 12:21:26 51°12.194 2°48.447 242.8 12.2 241.3 13.3
2002-04-25 12:21:31 51°12.186 2°48.423 243 12.2 241.6 13.3
2002-04-25 12:21:36 51°12.178 2°48.4 242.5 12.1 241.2 13.2
2002-04-25 12:21:41 51°12.17 2°48.377 242.3 12.1 241.1 13.1
2002-04-25 12:21:46 51°12.162 2°48.353 242.7 12.1 241.5 13.3
2002-04-25 12:21:51 51°12.154 2°48.33 242.8 12.1 241.2 13.3
2002-04-25 12:21:56 51°12.146 2°48.307 242.5 12.2 241.4 13.3
2002-04-25 12:22:01 51°12.138 2°48.283 242.8 12.2 241.7 13.3
2002-04-25 12:22:06 51°12.13 2°48.259 242.7 12.2 241.4 13.1
2002-04-25 12:22:11 51°12.122 2°48.235 242.7 12.2 241.7 13.2
2002-04-25 12:22:16 51°12.114 2°48.211 243.3 12.3 241.9 13.3
2002-04-25 12:22:21 51°12.107 2°48.187 244.5 12.3 243.1 13.3
2002-04-25 12:22:26 51°12.099 2°48.162 246.2 12.3 244.5 13.2
2002-04-25 12:22:31 51°12.093 2°48.137 247.2 12.3 245.7 13.3
2002-04-25 12:22:36 51°12.086 2°48.112 247.8 12.4 246.5 13.3
2002-04-25 12:22:41 51°12.079 2°48.087 248.5 12.4 247.5 13.4
2002-04-25 12:22:46 51°12.073 2°48.062 249 12.3 247.5 13.4
2002-04-25 12:22:51 51°12.067 2°48.036 249.5 12.4 248.1 13.4
2002-04-25 12:22:56 51°12.061 2°48.011 249.8 12.4 248.9 13.5
2002-04-25 12:23:01 51°12.054 2°47.985 249.7 12.4 248.8 13.4
2002-04-25 12:23:06 51°12.048 2°47.96 249.5 12.4 248.4 13.5
2002-04-25 12:23:11 51°12.041 2°47.935 249 12.4 247.8 13.5
2002-04-25 12:23:16 51°12.035 2°47.91 248.5 12.3 247.4 13.5
2002-04-25 12:23:21 51°12.028 2°47.885 248 12.3 246.7 13.5
2002-04-25 12:23:26 51°12.021 2°47.86 247.7 12.3 246.2 13.5
2002-04-25 12:23:31 51°12.014 2°47.835 248 12.2 246.2 13.5
2002-04-25 12:23:36 51°12.008 2°47.81 248 12.2 246.6 13.6
2002-04-25 12:23:41 51°12.001 2°47.785 248 12.2 246.6 13.6
2002-04-25 12:23:46 51°11.994 2°47.761 247.7 12.2 246.5 13.5
2002-04-25 12:23:51 51°11.988 2°47.736 247.8 12.2 247 13.4
2002-04-25 12:23:56 51°11.981 2°47.711 248 12.2 246.9 13.6
2002-04-25 12:24:01 51°11.974 2°47.686 247.8 12.2 246.9 13.6
2002-04-25 12:24:06 51°11.968 2°47.661 248 12.2 247.1 13.6
2002-04-25 12:24:11 51°11.961 2°47.637 248 12.2 247 13.6
2002-04-25 12:24:16 51°11.954 2°47.612 247.8 12.2 246.7 13.6
2002-04-25 12:24:21 51°11.948 2°47.588 247.8 12.2 246.6 13.5
2002-04-25 12:24:26 51°11.941 2°47.563 248 12.2 246.7 13.5
2002-04-25 12:24:31 51°11.934 2°47.538 248.2 12.1 246.8 13.6
2002-04-25 12:24:36 51°11.928 2°47.513 248.2 12.2 247.1 13.6
2002-04-25 12:24:41 51°11.921 2°47.489 248 12.2 246.9 13.6
2002-04-25 12:24:46 51°11.915 2°47.464 247.8 12.1 246.6 13.6
2002-04-25 12:24:51 51°11.908 2°47.439 248.2 12.2 246.8 13.6
2002-04-25 12:24:56 51°11.901 2°47.415 248 12.2 246.4 13.6
2002-04-25 12:25:01 51°11.895 2°47.39 247.7 12.2 247 13.7
2002-04-25 12:25:06 51°11.888 2°47.365 247.8 12.2 246.4 13.6
2002-04-25 12:25:11 51°11.881 2°47.341 248 12.2 246.7 13.5
2002-04-25 12:25:16 51°11.874 2°47.316 247.7 12.2 246.1 13.6
2002-04-25 12:25:21 51°11.868 2°47.291 247.7 12.2 246.8 13.7
2002-04-25 12:25:26 51°11.861 2°47.267 247.8 12.2 246.2 13.7
2002-04-25 12:25:31 51°11.854 2°47.242 248 12.2 246.3 13.6
2002-04-25 12:25:36 51°11.847 2°47.217 248 12.2 246.6 13.7
2002-04-25 12:25:41 51°11.841 2°47.193 248.2 12.2 246.7 13.7
2002-04-25 12:25:46 51°11.834 2°47.168 248.2 12.2 246.8 13.7
2002-04-25 12:25:51 51°11.827 2°47.143 247.8 12.2 247 13.7
2002-04-25 12:25:56 51°11.821 2°47.119 248 12.1 246.8 13.6
2002-04-25 12:26:01 51°11.814 2°47.094 248 12.2 246.6 13.6
2002-04-25 12:26:06 51°11.807 2°47.069 247.8 12.2 246.7 13.7
2002-04-25 12:26:11 51°11.801 2°47.044 247.8 12.2 246.7 13.6
2002-04-25 12:26:16 51°11.794 2°47.02 247.8 12.2 246.8 13.7
2002-04-25 12:26:21 51°11.787 2°46.995 247.8 12.2 246.9 13.5
2002-04-25 12:26:26 51°11.781 2°46.97 248 12.2 246.7 13.7
2002-04-25 12:26:31 51°11.774 2°46.946 247.8 12.2 246.7 13.8
2002-04-25 12:26:36 51°11.767 2°46.921 247.8 12.2 246.6 13.8
2002-04-25 12:26:41 51°11.761 2°46.896 248.2 12.2 246.8 13.8
2002-04-25 12:26:46 51°11.754 2°46.872 248 12.2 246.7 13.6
2002-04-25 12:26:51 51°11.747 2°46.847 248 12.2 246.6 13.7
2002-04-25 12:26:56 51°11.741 2°46.822 248 12.2 246.9 13.8
2002-04-25 12:27:01 51°11.734 2°46.797 247.8 12.2 246.9 13.7
2002-04-25 12:27:06 51°11.727 2°46.773 247.8 12.2 246.6 13.8
2002-04-25 12:27:11 51°11.721 2°46.748 248 12.2 246.8 13.8
2002-04-25 12:27:16 51°11.714 2°46.723 248 12.3 246.8 13.8
2002-04-25 12:27:21 51°11.707 2°46.698 248.2 12.3 247 13.8
2002-04-25 12:27:26 51°11.7 2°46.673 248.2 12.3 246.8 13.9
2002-04-25 12:27:31 51°11.694 2°46.649 248 12.2 246.9 13.9
2002-04-25 12:27:36 51°11.687 2°46.624 247.7 12.3 246.4 13.9
2002-04-25 12:27:41 51°11.68 2°46.599 247.5 12.3 246.4 13.9
2002-04-25 12:27:46 51°11.673 2°46.574 247.7 12.3 246.6 13.9
2002-04-25 12:27:51 51°11.667 2°46.549 248 12.2 246.6 13.9
2002-04-25 12:27:56 51°11.66 2°46.524 248.2 12.2 246.9 14
2002-04-25 12:28:01 51°11.654 2°46.499 248.3 12.3 247.2 14
2002-04-25 12:28:06 51°11.647 2°46.475 247.8 12.2 246.8 14
2002-04-25 12:28:11 51°11.64 2°46.45 247.8 12.2 246.8 14
2002-04-25 12:28:16 51°11.633 2°46.425 248 12.2 246.6 14
2002-04-25 12:28:21 51°11.626 2°46.4 247.8 12.3 246.6 14.1
2002-04-25 12:28:26 51°11.62 2°46.375 248 12.3 246.7 14.1
2002-04-25 12:28:31 51°11.613 2°46.351 248.2 12.2 246.7 14.1
2002-04-25 12:28:36 51°11.606 2°46.326 247.7 12.2 246.4 14.1
2002-04-25 12:28:41 51°11.599 2°46.301 247.8 12.2 246.6 14.1
2002-04-25 12:28:46 51°11.592 2°46.277 247.7 12.2 246.3 14.1
2002-04-25 12:28:51 51°11.586 2°46.252 247.5 12.2 246.4 14.1
2002-04-25 12:28:56 51°11.579 2°46.228 247.5 12.1 246.3 14.1
2002-04-25 12:29:01 51°11.572 2°46.203 247.7 12.1 246.5 14.1
2002-04-25 12:29:06 51°11.565 2°46.178 247.8 12.2 246.3 14
2002-04-25 12:29:11 51°11.559 2°46.154 247.8 12.2 246.6 14
2002-04-25 12:29:16 51°11.552 2°46.129 248 12.1 246.5 14
2002-04-25 12:29:21 51°11.545 2°46.104 248 12.1 246.5 14
2002-04-25 12:29:26 51°11.539 2°46.079 248.2 12.2 246.6 14
2002-04-25 12:29:31 51°11.532 2°46.054 248 12.2 246.6 14
2002-04-25 12:29:36 51°11.526 2°46.03 247.8 12.2 246.5 14
2002-04-25 12:29:41 51°11.519 2°46.005 247.8 12.2 246.2 14
2002-04-25 12:29:46 51°11.512 2°45.981 248 12.2 246.4 14
2002-04-25 12:29:51 51°11.505 2°45.956 247.8 12.1 246 13.9
2002-04-25 12:29:56 51°11.498 2°45.931 247.8 12.1 246.4 13.9
2002-04-25 12:30:01 51°11.491 2°45.907 248 12.1 246.3 13.9
2002-04-25 12:30:06 51°11.485 2°45.882 247.8 12.1 246.4 13.9
2002-04-25 12:30:11 51°11.478 2°45.858 247.8 12.1 246.2 13.9
2002-04-25 12:30:16 51°11.471 2°45.833 247.8 12.1 246.2 13.9
2002-04-25 12:30:21 51°11.465 2°45.809 248 12.1 246.4 13.9
2002-04-25 12:30:26 51°11.458 2°45.784 248 12.1 246.3 13.9
2002-04-25 12:30:31 51°11.451 2°45.76 247.8 12.1 246.4 13.9
2002-04-25 12:30:36 51°11.444 2°45.735 248 12.1 246.3 13.9
2002-04-25 12:30:41 51°11.438 2°45.711 248.2 12.1 246.4 13.9
2002-04-25 12:30:46 51°11.431 2°45.686 248.2 12.1 246.5 13.9
2002-04-25 12:30:51 51°11.424 2°45.662 248.2 12.1 246.5 13.9
2002-04-25 12:30:56 51°11.418 2°45.637 248 12.1 246.3 14
2002-04-25 12:31:01 51°11.411 2°45.613 248.2 12.1 246.4 13.9
2002-04-25 12:31:06 51°11.404 2°45.588 248 12.2 246 13.9
2002-04-25 12:31:11 51°11.397 2°45.564 247.5 12.2 245.5 13.9
2002-04-25 12:31:16 51°11.39 2°45.539 247.7 12.2 245.5 13.9
2002-04-25 12:31:21 51°11.383 2°45.515 247.7 12.2 245.1 13.9
2002-04-25 12:31:26 51°11.376 2°45.49 247.7 12.3 245.4 13.9
2002-04-25 12:31:31 51°11.369 2°45.465 247.8 12.3 245.5 13.8
2002-04-25 12:31:36 51°11.362 2°45.44 248 12.3 245.8 13.8
2002-04-25 12:31:41 51°11.355 2°45.415 248.3 12.3 246.1 13.8
2002-04-25 12:31:46 51°11.348 2°45.39 248.2 12.3 246.1 13.8
2002-04-25 12:31:51 51°11.341 2°45.366 248 12.3 245.8 13.8
2002-04-25 12:31:56 51°11.334 2°45.341 248 12.3 246 13.8
2002-04-25 12:32:01 51°11.327 2°45.316 247.8 12.3 245.7 13.8
2002-04-25 12:32:06 51°11.32 2°45.291 247.8 12.3 245.7 13.8
2002-04-25 12:32:11 51°11.313 2°45.266 248 12.3 245.7 13.7
2002-04-25 12:32:16 51°11.306 2°45.241 248 12.3 245.8 13.7
2002-04-25 12:32:21 51°11.299 2°45.217 248 12.3 245.9 13.7
2002-04-25 12:32:26 51°11.292 2°45.192 248 12.3 245.8 13.7
2002-04-25 12:32:31 51°11.285 2°45.167 248.2 12.3 246 13.7
2002-04-25 12:32:36 51°11.278 2°45.142 248.3 12.3 246.3 13.6
2002-04-25 12:32:41 51°11.271 2°45.117 248 12.3 246.2 13.7
2002-04-25 12:32:46 51°11.265 2°45.092 248.2 12.3 247.4 13.6
2002-04-25 12:32:51 51°11.26 2°45.066 252 12.3 250.5 13.7
2002-04-25 12:32:56 51°11.258 2°45.04 259 12.2 255.8 13.7
2002-04-25 12:33:01 51°11.258 2°45.013 265.8 12.1 264.7 13.8
2002-04-25 12:33:06 51°11.259 2°44.986 271.7 12.1 271.2 13.8
2002-04-25 12:33:11 51°11.26 2°44.959 272.8 12.2 272.6 13.9
2002-04-25 12:33:16 51°11.261 2°44.932 273.7 12.3 273.3 14
2002-04-25 12:33:21 51°11.262 2°44.905 275.7 12.4 274.3 14.1
2002-04-25 12:33:26 51°11.264 2°44.878 275.7 12.4 274.8 14.1
2002-04-25 12:33:31 51°11.265 2°44.85 273.7 12.4 273.9 14.2
2002-04-25 12:33:36 51°11.266 2°44.823 274.8 12.5 274.4 14.2
2002-04-25 12:33:41 51°11.268 2°44.795 276.8 12.5 276.1 14.2
2002-04-25 12:33:46 51°11.27 2°44.768 277.3 12.5 276.6 14.3
2002-04-25 12:33:51 51°11.271 2°44.74 275.8 12.5 275.7 14.4
2002-04-25 12:33:56 51°11.272 2°44.713 272.8 12.5 274.1 14.4
2002-04-25 12:34:01 51°11.273 2°44.685 273.8 12.5 272.7 14.5
2002-04-25 12:34:06 51°11.275 2°44.658 275.8 12.5 274.9 14.5
2002-04-25 12:34:11 51°11.276 2°44.63 276.2 12.5 275.2 14.6
2002-04-25 12:34:16 51°11.278 2°44.603 274.7 12.5 274.5 14.6
2002-04-25 12:34:21 51°11.278 2°44.575 273.2 12.5 273.6 14.6
2002-04-25 12:34:26 51°11.28 2°44.548 274.2 12.5 273.8 14.7
2002-04-25 12:34:31 51°11.282 2°44.52 275.5 12.5 274.9 14.7
2002-04-25 12:34:36 51°11.283 2°44.492 275.3 12.6 275.4 14.8
2002-04-25 12:34:41 51°11.285 2°44.465 275.3 12.6 275.3 14.8
2002-04-25 12:34:46 51°11.287 2°44.437 276.5 12.6 276.4 14.8
2002-04-25 12:34:51 51°11.289 2°44.41 276.7 12.6 276.7 14.8
2002-04-25 12:34:56 51°11.291 2°44.382 276 12.5 276 14.9
2002-04-25 12:35:01 51°11.292 2°44.355 274.7 12.5 275.3 14.9
2002-04-25 12:35:06 51°11.293 2°44.327 273.5 12.5 274.5 14.9
2002-04-25 12:35:11 51°11.295 2°44.3 275.3 12.5 275.5 14.9
2002-04-25 12:35:16 51°11.298 2°44.272 277.8 12.5 278.4 14.9
2002-04-25 12:35:21 51°11.302 2°44.245 281.2 12.5 281.3 14.9
2002-04-25 12:35:26 51°11.307 2°44.219 282.8 12.5 283.9 15
2002-04-25 12:35:31 51°11.311 2°44.192 284.8 12.5 285.5 15
2002-04-25 12:35:36 51°11.317 2°44.166 287.8 12.5 288.2 15
2002-04-25 12:35:41 51°11.323 2°44.14 288.7 12.5 289.1 15.1
2002-04-25 12:35:46 51°11.328 2°44.114 287.7 12.5 288.4 15
2002-04-25 12:35:51 51°11.332 2°44.088 284.8 12.4 286.6 15
2002-04-25 12:35:56 51°11.337 2°44.061 284.7 12.5 285.8 15.1
2002-04-25 12:36:01 51°11.342 2°44.035 286 12.5 286.5 15.2
2002-04-25 12:36:06 51°11.348 2°44.009 288 12.5 288.3 15.1
2002-04-25 12:36:11 51°11.354 2°43.982 288.2 12.5 288.8 15.1
2002-04-25 12:36:16 51°11.359 2°43.956 287 12.5 288.1 15.2
2002-04-25 12:36:21 51°11.364 2°43.93 287.2 12.5 288.1 15.2
2002-04-25 12:36:26 51°11.37 2°43.904 288.5 12.6 289.2 15.2
2002-04-25 12:36:31 51°11.376 2°43.878 289.5 12.6 290.1 15.1
2002-04-25 12:36:36 51°11.382 2°43.852 290.5 12.6 291.1 15.2
2002-04-25 12:36:41 51°11.389 2°43.826 291.2 12.6 291.7 15.2
2002-04-25 12:36:46 51°11.395 2°43.8 291.3 12.6 291.9 15.1
2002-04-25 12:36:51 51°11.401 2°43.774 290.7 12.6 291.5 15.1
2002-04-25 12:36:56 51°11.407 2°43.748 288.3 12.6 289.5 15
2002-04-25 12:37:01 51°11.412 2°43.721 287 12.6 288.3 15
2002-04-25 12:37:06 51°11.418 2°43.695 287.2 12.6 287.8 15
2002-04-25 12:37:11 51°11.423 2°43.668 287.3 12.6 287.9 14.9
2002-04-25 12:37:16 51°11.43 2°43.642 288.7 12.6 288.9 14.9
2002-04-25 12:37:21 51°11.435 2°43.616 289 12.6 289.6 14.8
2002-04-25 12:37:26 51°11.441 2°43.59 288.8 12.6 289.6 14.8
2002-04-25 12:37:31 51°11.446 2°43.563 287.7 12.6 288.8 14.8
2002-04-25 12:37:36 51°11.451 2°43.537 287 12.5 287.7 14.7
2002-04-25 12:37:40 51°11.455 2°43.516 285.7 12.5 286.8 14.7
2002-04-25 12:37:46 51°11.461 2°43.484 285.3 12.6 286.2 14.5
2002-04-25 12:37:51 51°11.466 2°43.457 286.2 12.6 286.7 14.4
2002-04-25 12:37:56 51°11.472 2°43.431 288 12.6 287.8 14.5
2002-04-25 12:38:01 51°11.478 2°43.405 289.2 12.6 289.6 14.2
2002-04-25 12:38:06 51°11.484 2°43.379 289.2 12.6 290 14.2
2002-04-25 12:38:11 51°11.49 2°43.353 290 12.6 290.3 14.2
2002-04-25 12:38:16 51°11.496 2°43.327 290.7 12.6 290.6 14.1
2002-04-25 12:38:21 51°11.502 2°43.3 288.8 12.6 289.6 14
2002-04-25 12:38:26 51°11.506 2°43.274 284.7 12.5 285.2 13.9
2002-04-25 12:38:31 51°11.509 2°43.247 280.3 12.4 281.7 13.7
2002-04-25 12:38:36 51°11.511 2°43.219 277.8 12.4 278.4 13.7
2002-04-25 12:38:41 51°11.514 2°43.192 277.5 12.4 277.9 13.7
2002-04-25 12:38:46 51°11.516 2°43.165 278.2 12.4 278.2 13.5
2002-04-25 12:38:51 51°11.519 2°43.138 279 12.5 279.5 13.4
2002-04-25 12:38:55 51°11.522 2°43.116 281.3 12.5 280.7 13.4
2002-04-25 12:39:01 51°11.529 2°43.085 286.2 12.5 285.6 13.5
2002-04-25 12:39:05 51°11.534 2°43.065 292 12.5 291.3 13.4
2002-04-25 12:39:11 51°11.546 2°43.037 298.3 12.5 298.5 13.3
2002-04-25 12:39:16 51°11.557 2°43.017 308 12.3 305.1 13.1
2002-04-25 12:39:20 51°11.568 2°43.003 318 12.3 316.6 13
2002-04-25 12:39:25 51°11.582 2°42.987 322.2 12.4 322.6 13
2002-04-25 12:39:31 51°11.599 2°42.967 321.7 12.5 323.8 12.9
2002-04-25 12:39:35 51°11.61 2°42.953 320 12.6 322.8 12.8
2002-04-25 12:39:41 51°11.626 2°42.932 318.5 12.7 321.1 12.7
2002-04-25 12:39:46 51°11.639 2°42.912 317 12.8 319.2 12.4
2002-04-25 12:39:51 51°11.652 2°42.892 315.7 12.8 317.7 12.2
2002-04-25 12:39:56 51°11.664 2°42.872 313 12.8 315.9 12.1
2002-04-25 12:40:01 51°11.675 2°42.851 308.8 12.7 311.6 11.9
2002-04-25 12:40:05 51°11.683 2°42.832 303.5 12.6 306.8 11.8
2002-04-25 12:40:11 51°11.693 2°42.804 299 12.5 301.9 11.8
2002-04-25 12:40:16 51°11.7 2°42.779 294 12.3 298 11.8
2002-04-25 12:40:20 51°11.705 2°42.76 290.7 11.9 293.3 11.7
2002-04-25 12:40:26 51°11.711 2°42.733 289.3 11.2 291.7 11.7
2002-04-25 12:40:31 51°11.716 2°42.713 288 10.3 290.4 11.7
2002-04-25 12:40:36 51°11.72 2°42.695 286 9.5 289.5 11.8
2002-04-25 12:40:40 51°11.722 2°42.681 284 8.5 287.9 11.9
2002-04-25 12:40:46 51°11.726 2°42.662 281.8 7.9 286.7 12
2002-04-25 12:40:51 51°11.728 2°42.648 279.3 7.1 284.3 12.1
2002-04-25 12:40:56 51°11.729 2°42.634 276.5 6.7 282.5 12
2002-04-25 12:41:00 51°11.73 2°42.624 273.3 5.9 279.6 12.1
2002-04-25 12:41:06 51°11.731 2°42.611 270 5.4 277.7 12.1
2002-04-25 12:41:11 51°11.732 2°42.602 269 4.5 275.6 12.2
2002-04-25 12:41:16 51°11.733 2°42.595 269.7 3.6 277.2 12.2
2002-04-25 12:41:21 51°11.733 2°42.589 268.3 3 278.2 12.1
2002-04-25 12:41:26 51°11.734 2°42.586 264.8 2.3 280.9 12.2
2002-04-25 12:41:31 51°11.734 2°42.584 260 1.3 285.9 12.2
2002-04-25 12:41:36 51°11.735 2°42.584 255.7 0.5 328.6 12.2
2002-04-25 12:41:41 51°11.736 2°42.585 252.5 0.6 26.9 12.2
2002-04-25 12:41:45 51°11.736 2°42.587 250 0.9 44 12.2
2002-04-25 12:41:51 51°11.738 2°42.589 247.7 1.1 50.7 12.2
2002-04-25 12:41:56 51°11.739 2°42.591 245.3 1.1 52.5 12.2
2002-04-25 12:42:01 51°11.739 2°42.593 243.7 1.1 53.8 12.2
2002-04-25 12:42:06 51°11.74 2°42.595 241.7 1.1 54.7 12.3
2002-04-25 12:42:11 51°11.741 2°42.597 239.8 1.1 56.2 12.2
2002-04-25 12:42:16 51°11.742 2°42.599 238.8 1.1 58.8 12.2
2002-04-25 12:42:20 51°11.742 2°42.601 237.2 1.1 60.1 12.1
2002-04-25 12:42:26 51°11.743 2°42.604 235.3 1.2 62 -999
2002-04-25 12:42:31 51°11.744 2°42.606 233.2 1.1 62.9 -999
2002-04-25 12:42:37 51°11.745 2°42.609 230.8 1.1 63.4 -999
2002-04-25 12:42:42 51°11.746 2°42.611 229 1.1 62.9 -999
2002-04-25 12:42:47 51°11.746 2°42.613 227 1.1 62.3 -999
2002-04-25 12:42:51 51°11.747 2°42.615 225.5 1.1 64.9 -999
2002-04-25 12:42:57 51°11.748 2°42.617 223.7 1.1 64.2 -999
2002-04-25 12:43:01 51°11.748 2°42.619 222.2 1.1 64.5 -999
2002-04-25 12:43:07 51°11.749 2°42.622 220.8 1.1 63.3 -999
2002-04-25 12:43:12 51°11.749 2°42.624 219.5 1.1 64.7 -999
2002-04-25 12:43:16 51°11.75 2°42.626 218.2 1.1 65.6 -999
2002-04-25 12:43:21 51°11.751 2°42.628 216.7 1.1 66.8 -999
2002-04-25 12:43:26 51°11.751 2°42.63 215.5 1 67.5 -999
2002-04-25 12:43:31 51°11.751 2°42.632 214.2 1.1 69.4 -999
2002-04-25 12:43:36 51°11.752 2°42.634 213.2 1.1 71 -999
2002-04-25 12:43:41 51°11.752 2°42.636 212 1.1 72.3 -999
2002-04-25 12:43:47 51°11.753 2°42.639 211 1.1 70.2 -999
2002-04-25 12:43:52 51°11.754 2°42.641 210.3 1.1 70.9 -999
2002-04-25 12:43:56 51°11.754 2°42.643 209.7 1 71.6 -999
2002-04-25 12:44:01 51°11.754 2°42.645 208.8 1.1 73.1 -999
2002-04-25 12:44:06 51°11.755 2°42.647 208 1.1 73.3 -999
2002-04-25 12:44:11 51°11.755 2°42.65 207.3 1.1 73.6 -999
2002-04-25 12:44:16 51°11.756 2°42.652 207 1.1 75 -999
2002-04-25 12:44:21 51°11.756 2°42.654 206.8 1.1 76.4 -999
2002-04-25 12:44:27 51°11.756 2°42.657 206.3 1.1 75.9 -999
2002-04-25 12:44:31 51°11.757 2°42.659 205.8 1.1 75.7 -999
2002-04-25 12:44:36 51°11.757 2°42.661 205.3 1.1 75.7 -999
2002-04-25 12:44:41 51°11.757 2°42.663 204.7 1.1 76.8 -999
2002-04-25 12:44:46 51°11.758 2°42.666 204.2 1.1 77.9 -999
2002-04-25 12:44:52 51°11.758 2°42.669 204 1.1 77.7 -999
2002-04-25 12:44:57 51°11.758 2°42.671 203.5 1.1 77.6 -999
2002-04-25 12:45:01 51°11.759 2°42.673 203.2 1.1 77.7 12
2002-04-25 12:45:06 51°11.759 2°42.675 202.8 1.1 78.6 12
2002-04-25 12:45:11 51°11.76 2°42.678 202.7 1.1 78.7 11.9
2002-04-25 12:45:15 51°11.76 2°42.679 202.5 1.1 78.1 12
2002-04-25 12:45:21 51°11.76 2°42.683 202 1.1 79 11.9
2002-04-25 12:45:26 51°11.76 2°42.685 201.7 1.1 79.5 12
2002-04-25 12:45:31 51°11.76 2°42.687 201.7 1.1 79.6 11.9
2002-04-25 12:45:36 51°11.761 2°42.69 201.2 1.1 79 11.9
2002-04-25 12:45:40 51°11.761 2°42.692 201 1.1 79 11.9
2002-04-25 12:45:46 51°11.761 2°42.694 200.8 1.1 79.3 11.9
2002-04-25 12:45:51 51°11.761 2°42.696 200.7 1.1 80.8 12
2002-04-25 12:45:56 51°11.762 2°42.699 200.5 1.1 80.5 12
2002-04-25 12:46:01 51°11.762 2°42.701 200.2 1.1 79.9 12
2002-04-25 12:46:06 51°11.762 2°42.703 200 1.1 81.2 11.9
2002-04-25 12:46:11 51°11.763 2°42.706 199.7 1.1 82.5 11.9
2002-04-25 12:46:16 51°11.763 2°42.708 199.8 1.1 82.2 11.9
2002-04-25 12:46:21 51°11.763 2°42.71 199.7 1.1 81.4 11.9
2002-04-25 12:46:25 51°11.763 2°42.712 199.2 1.1 82.1 11.9
2002-04-25 12:46:31 51°11.763 2°42.715 198.7 1.1 82.8 11.9
2002-04-25 12:46:35 51°11.764 2°42.717 198.7 1.1 82.5 11.9
2002-04-25 12:46:41 51°11.764 2°42.72 198.5 1.1 82.8 11.9
2002-04-25 12:46:45 51°11.764 2°42.722 198.5 1.1 83.4 11.9
2002-04-25 12:46:51 51°11.764 2°42.725 198.7 1.1 84.2 11.9
2002-04-25 12:46:56 51°11.764 2°42.727 198.7 1.1 84.3 11.9
2002-04-25 12:47:01 51°11.765 2°42.729 198.5 1.1 83.8 11.9
2002-04-25 12:47:06 51°11.765 2°42.732 198.7 1.1 83.5 11.8
2002-04-25 12:47:11 51°11.765 2°42.734 199.2 1.1 83.2 12
2002-04-25 12:47:16 51°11.765 2°42.737 199.3 1.1 83.3 11.9
2002-04-25 12:47:21 51°11.765 2°42.739 199.7 1 82.7 11.9
2002-04-25 12:47:26 51°11.765 2°42.742 199.8 1 81.7 11.9
2002-04-25 12:47:31 51°11.765 2°42.744 200.2 1 82.8 11.9
2002-04-25 12:47:36 51°11.765 2°42.746 200.7 1 83 11.9
2002-04-25 12:47:41 51°11.766 2°42.749 201 1 81.8 11.9
2002-04-25 12:47:46 51°11.766 2°42.751 201.3 1.1 83 11.8
2002-04-25 12:47:51 51°11.766 2°42.753 202 1.1 83.3 11.8
2002-04-25 12:47:56 51°11.766 2°42.756 202.2 1 83.6 11.9
2002-04-25 12:48:01 51°11.766 2°42.758 202.5 1 82.6 11.8
2002-04-25 12:48:06 51°11.766 2°42.76 203 1 83.2 11.8
2002-04-25 12:48:11 51°11.766 2°42.762 203.3 1 82.7 11.8
2002-04-25 12:48:15 51°11.767 2°42.764 204.2 1 84.4 11.8
2002-04-25 12:48:20 51°11.767 2°42.766 204.7 1 82 11.8
2002-04-25 12:48:26 51°11.767 2°42.769 205.2 1 79.8 11.8
2002-04-25 12:48:31 51°11.767 2°42.771 205.3 1 81.1 11.8
2002-04-25 12:48:36 51°11.768 2°42.773 206 1 82 11.8
2002-04-25 12:48:41 51°11.768 2°42.775 206.5 1 83 11.8
2002-04-25 12:48:45 51°11.768 2°42.777 206.8 1 82.2 11.8
2002-04-25 12:48:51 51°11.769 2°42.779 207.5 1 81 11.7
2002-04-25 12:48:56 51°11.769 2°42.781 208 1 81.9 11.7
2002-04-25 12:49:01 51°11.769 2°42.783 208 1 81.7 11.7
2002-04-25 12:49:06 51°11.769 2°42.786 208.8 1 81.5 11.7
2002-04-25 12:49:10 51°11.769 2°42.787 209 1 81.4 11.7
2002-04-25 12:49:15 51°11.77 2°42.789 209.5 1 83 11.7
2002-04-25 12:49:21 51°11.77 2°42.792 209.8 0.9 81.6 11.7
2002-04-25 12:49:26 51°11.77 2°42.794 210.3 0.9 81.3 11.7
2002-04-25 12:49:31 51°11.77 2°42.796 210.7 0.9 81.2 11.7
2002-04-25 12:49:36 51°11.77 2°42.798 211.5 0.9 81.2 11.7
2002-04-25 12:49:41 51°11.771 2°42.8 211.8 0.9 79.7 11.7
2002-04-25 12:49:45 51°11.771 2°42.801 212.7 0.9 79.4 11.7
2002-04-25 12:49:50 51°11.771 2°42.803 213.2 0.9 79.4 11.7
2002-04-25 12:49:56 51°11.772 2°42.805 213.8 0.9 80.5 11.7
2002-04-25 12:50:01 51°11.772 2°42.807 214.2 0.9 80.1 11.7
2002-04-25 12:50:06 51°11.772 2°42.809 214.8 0.9 80.2 11.7
2002-04-25 12:50:11 51°11.772 2°42.811 215.5 0.9 80.1 11.7
2002-04-25 12:50:16 51°11.772 2°42.812 216.2 0.9 79 11.7
2002-04-25 12:50:21 51°11.773 2°42.814 216.7 0.9 79 11.7
2002-04-25 12:50:26 51°11.773 2°42.816 217.2 0.9 79.1 11.7
2002-04-25 12:50:31 51°11.773 2°42.819 217.7 0.9 79.1 11.7
2002-04-25 12:50:36 51°11.773 2°42.82 218 0.9 77.9 11.7
2002-04-25 12:50:41 51°11.774 2°42.822 218.5 0.9 77.3 11.7
2002-04-25 12:50:46 51°11.774 2°42.824 219.2 0.9 76.9 11.7
2002-04-25 12:50:51 51°11.774 2°42.826 219.5 0.9 77.3 11.7
2002-04-25 12:50:56 51°11.775 2°42.828 220 0.9 77.2 11.7
2002-04-25 12:51:00 51°11.775 2°42.829 220.3 0.9 76.4 11.7
2002-04-25 12:51:06 51°11.775 2°42.832 220.3 0.9 78.3 11.7
2002-04-25 12:51:11 51°11.775 2°42.834 220.3 0.9 78.1 11.7
2002-04-25 12:51:16 51°11.776 2°42.836 220.8 0.9 78.4 11.6
2002-04-25 12:51:21 51°11.776 2°42.837 220.7 0.9 76.4 11.6
2002-04-25 12:51:25 51°11.776 2°42.839 221.2 0.9 78.6 11.6
2002-04-25 12:51:31 51°11.777 2°42.841 221.3 0.9 78.3 11.6
2002-04-25 12:51:36 51°11.777 2°42.843 221.5 0.9 77.1 11.6
2002-04-25 12:51:40 51°11.777 2°42.844 221.8 0.9 77 11.6
2002-04-25 12:51:46 51°11.777 2°42.846 222 0.9 77.9 11.6
2002-04-25 12:51:51 51°11.778 2°42.849 222 0.9 77.3 11.6
2002-04-25 12:51:56 51°11.778 2°42.85 222.5 0.8 75.6 11.6
2002-04-25 12:52:01 51°11.778 2°42.852 222.8 0.9 76.7 11.6
2002-04-25 12:52:05 51°11.778 2°42.854 223 0.9 77.8 11.6
2002-04-25 12:52:11 51°11.779 2°42.856 223.2 0.8 77.7 11.6
2002-04-25 12:52:15 51°11.779 2°42.857 223.2 0.9 78.1 11.5
2002-04-25 12:52:21 51°11.779 2°42.859 223.3 0.9 77.3 11.5
2002-04-25 12:52:26 51°11.779 2°42.861 223.3 0.9 78.2 11.6
2002-04-25 12:52:31 51°11.78 2°42.863 223.3 0.9 76.9 11.5
2002-04-25 12:52:36 51°11.78 2°42.865 223.7 0.9 77.3 11.5
2002-04-25 12:52:40 51°11.78 2°42.866 223.7 0.9 78.4 11.5
2002-04-25 12:52:45 51°11.78 2°42.868 223.7 0.9 78.5 11.5
2002-04-25 12:52:51 51°11.781 2°42.87 223.8 0.9 77.8 11.5
2002-04-25 12:52:56 51°11.781 2°42.872 224 0.8 76.2 11.5
2002-04-25 12:53:01 51°11.781 2°42.874 224.2 0.8 78 11.5
2002-04-25 12:53:05 51°11.781 2°42.876 224.3 0.8 77.4 11.5
2002-04-25 12:53:11 51°11.782 2°42.878 224.7 0.8 76.2 11.5
2002-04-25 12:53:16 51°11.782 2°42.879 224.8 0.8 76.4 11.5
2002-04-25 12:53:21 51°11.782 2°42.881 224.8 0.8 77.3 11.5
2002-04-25 12:53:25 51°11.782 2°42.882 225 0.8 76.3 11.6
2002-04-25 12:53:31 51°11.783 2°42.885 225 0.8 78.5 11.6
2002-04-25 12:53:36 51°11.783 2°42.886 224.7 0.8 77.8 11.5
2002-04-25 12:53:41 51°11.783 2°42.888 225 0.8 78.6 11.6
2002-04-25 12:53:46 51°11.783 2°42.89 225 0.8 77.4 11.6
2002-04-25 12:53:51 51°11.784 2°42.892 225 0.8 77.8 11.6
2002-04-25 12:53:56 51°11.784 2°42.893 224.8 0.8 77.4 11.6
2002-04-25 12:54:01 51°11.784 2°42.895 225.2 0.8 77.7 11.6
2002-04-25 12:54:06 51°11.784 2°42.897 225.2 0.8 78.1 11.6
2002-04-25 12:54:11 51°11.784 2°42.899 225.3 0.8 78.2 11.7
2002-04-25 12:54:16 51°11.785 2°42.9 225.7 0.8 76.8 11.7
2002-04-25 12:54:21 51°11.785 2°42.902 225.8 0.8 76.2 11.7
2002-04-25 12:54:26 51°11.785 2°42.904 226.2 0.8 75.7 11.8
2002-04-25 12:54:31 51°11.785 2°42.906 226.3 0.8 76 11.8
2002-04-25 12:54:36 51°11.786 2°42.908 226.7 0.8 75.2 11.8
2002-04-25 12:54:41 51°11.786 2°42.909 226.8 0.8 76.8 11.8
2002-04-25 12:54:46 51°11.786 2°42.911 226.8 0.8 77.3 11.8
2002-04-25 12:54:51 51°11.787 2°42.913 227.2 0.8 77 11.8
2002-04-25 12:54:56 51°11.787 2°42.915 227.5 0.8 77.3 11.8
2002-04-25 12:55:01 51°11.787 2°42.916 227.5 0.8 76.4 11.8
2002-04-25 12:55:06 51°11.787 2°42.918 227.2 0.8 77.8 11.8
2002-04-25 12:55:11 51°11.787 2°42.92 227.2 0.9 77.9 11.7
2002-04-25 12:55:16 51°11.788 2°42.922 227.3 0.8 77.6 11.7
2002-04-25 12:55:21 51°11.788 2°42.924 227.3 0.9 77 11.7
2002-04-25 12:55:26 51°11.788 2°42.926 227.5 0.8 76.8 11.7
2002-04-25 12:55:31 51°11.788 2°42.927 227.5 0.8 77.7 11.6
2002-04-25 12:55:36 51°11.789 2°42.929 227.5 0.8 77.7 11.6
2002-04-25 12:55:41 51°11.789 2°42.931 227.8 0.8 78.9 11.6
2002-04-25 12:55:46 51°11.789 2°42.933 228.3 0.8 77.3 11.6
2002-04-25 12:55:51 51°11.789 2°42.934 228.7 0.8 76.5 11.5
2002-04-25 12:55:56 51°11.79 2°42.936 229 0.8 74.7 11.5
2002-04-25 12:56:01 51°11.79 2°42.938 229.2 0.8 76.8 11.5
2002-04-25 12:56:06 51°11.79 2°42.939 229.3 0.8 75.2 11.4
2002-04-25 12:56:11 51°11.79 2°42.941 229.7 0.8 77.4 11.4
2002-04-25 12:56:16 51°11.79 2°42.943 230 0.8 75.5 11.4
2002-04-25 12:56:21 51°11.791 2°42.945 230.3 0.8 75.5 11.4
2002-04-25 12:56:26 51°11.791 2°42.947 230.5 0.8 75.1 11.4
2002-04-25 12:56:31 51°11.791 2°42.948 230.7 0.8 75.2 11.4
2002-04-25 12:56:36 51°11.792 2°42.95 231 0.8 76.1 11.4
2002-04-25 12:56:41 51°11.792 2°42.951 230.8 0.8 74.1 11.4
2002-04-25 12:56:46 51°11.793 2°42.953 231.2 0.8 75.7 11.4
2002-04-25 12:56:51 51°11.793 2°42.955 231.3 0.8 74.5 11.4
2002-04-25 12:56:56 51°11.793 2°42.957 231.5 0.8 76.5 11.4
2002-04-25 12:57:01 51°11.793 2°42.958 231.5 0.7 76 11.4
2002-04-25 12:57:06 51°11.793 2°42.96 231.8 0.7 81.2 11.4
2002-04-25 12:57:11 51°11.794 2°42.961 232.3 0.6 78.8 11.4
2002-04-25 12:57:16 51°11.794 2°42.963 232.8 0.6 86.4 11.4
2002-04-25 12:57:21 51°11.794 2°42.963 233.2 0.5 87.2 11.4
2002-04-25 12:57:26 51°11.794 2°42.965 233.7 0.5 91.5 11.5
2002-04-25 12:57:31 51°11.794 2°42.965 234.3 0.4 91.7 11.5
2002-04-25 12:57:36 51°11.794 2°42.966 235 0.4 94.7 11.5
2002-04-25 12:57:40 51°11.794 2°42.966 235.5 0.3 91.2 11.5
2002-04-25 12:57:46 51°11.794 2°42.967 236.2 0.3 94.3 11.5
2002-04-25 12:57:51 51°11.793 2°42.967 236.8 0.3 101 11.5
2002-04-25 12:57:56 51°11.793 2°42.968 237.5 0.2 117.7 11.5
2002-04-25 12:58:01 51°11.793 2°42.968 238.5 0.2 143.4 11.5
2002-04-25 12:58:06 51°11.793 2°42.967 239 0.3 202 11.5
2002-04-25 12:58:11 51°11.792 2°42.966 240.2 0.5 218.8 11.4
2002-04-25 12:58:16 51°11.791 2°42.965 241.3 0.8 229.4 11.4
2002-04-25 12:58:21 51°11.79 2°42.963 242.5 1 233 11.3
2002-04-25 12:58:26 51°11.789 2°42.96 244 1.2 237 11.4
2002-04-25 12:58:31 51°11.788 2°42.957 245.3 1.4 240.2 11.4
2002-04-25 12:58:36 51°11.787 2°42.954 247 1.6 244 11.4
2002-04-25 12:58:41 51°11.786 2°42.95 248.8 1.7 246.3 11.3
2002-04-25 12:58:46 51°11.785 2°42.946 250.3 1.9 249.9 11.4
2002-04-25 12:58:51 51°11.784 2°42.942 251.8 2.1 251.3 11.4
2002-04-25 12:58:56 51°11.784 2°42.937 253.7 2.2 254.2 11.5
2002-04-25 12:59:01 51°11.783 2°42.932 255.5 2.3 256.6 11.6
2002-04-25 12:59:06 51°11.782 2°42.926 257.2 2.5 258.8 11.6
2002-04-25 12:59:11 51°11.782 2°42.92 259 2.6 260.9 11.7
2002-04-25 12:59:16 51°11.782 2°42.914 261.2 2.7 263.2 11.6
2002-04-25 12:59:21 51°11.782 2°42.908 263 2.9 265.5 11.6
2002-04-25 12:59:26 51°11.782 2°42.901 265 3 269.4 11.6
2002-04-25 12:59:31 51°11.782 2°42.894 266.8 3.1 270.6 11.5
2002-04-25 12:59:36 51°11.782 2°42.887 269.2 3.2 274 11.4
2002-04-25 12:59:41 51°11.783 2°42.88 271 3.3 275.4 11.4
2002-04-25 12:59:46 51°11.784 2°42.873 273.2 3.4 279 11.4
2002-04-25 12:59:51 51°11.785 2°42.865 275.5 3.4 280.7 11.4
2002-04-25 12:59:56 51°11.786 2°42.858 277.7 3.5 284.2 11.4
2002-04-25 13:00:01 51°11.787 2°42.85 280 3.5 286 11.4
2002-04-25 13:00:06 51°11.789 2°42.843 282.3 3.6 289.8 11.4
2002-04-25 13:00:11 51°11.791 2°42.835 284.7 3.6 292 11.5
2002-04-25 13:00:16 51°11.793 2°42.828 287.2 3.7 294.3 11.5
2002-04-25 13:00:21 51°11.796 2°42.821 289.3 3.7 297.2 11.6
2002-04-25 13:00:26 51°11.799 2°42.814 291 3.8 299.7 11.6
2002-04-25 13:00:31 51°11.801 2°42.806 292.5 3.8 300.9 11.5
2002-04-25 13:00:36 51°11.804 2°42.799 294 3.9 302.5 11.6
2002-04-25 13:00:41 51°11.808 2°42.792 295.3 3.9 303.5 11.6
2002-04-25 13:00:46 51°11.811 2°42.785 296.5 4 305.3 11.7
2002-04-25 13:00:51 51°11.814 2°42.778 297.5 4 306.2 11.7
2002-04-25 13:00:56 51°11.817 2°42.771 298.5 4 307.5 11.7
2002-04-25 13:01:01 51°11.821 2°42.763 299.3 4 307.9 11.7
2002-04-25 13:01:06 51°11.824 2°42.756 300.2 4.1 308.8 11.8
2002-04-25 13:01:11 51°11.828 2°42.749 300.8 4.1 309.5 11.8
2002-04-25 13:01:16 51°11.832 2°42.742 301.7 4.1 310.2 11.9
2002-04-25 13:01:21 51°11.835 2°42.735 302.2 4.2 310.4 12
2002-04-25 13:01:25 51°11.839 2°42.73 302.7 4.2 310.9 12.1
2002-04-25 13:01:31 51°11.844 2°42.722 302.8 4.2 311.5 12
2002-04-25 13:01:36 51°11.848 2°42.716 302.8 4.2 311.7 12.1
2002-04-25 13:01:40 51°11.851 2°42.711 303.2 4.1 312 12.1
2002-04-25 13:01:46 51°11.857 2°42.703 303.3 4.1 312.3 12.1
2002-04-25 13:01:51 51°11.861 2°42.697 303.5 4 313 12.2
2002-04-25 13:01:56 51°11.864 2°42.691 303.3 4 313.3 12.3
2002-04-25 13:02:01 51°11.868 2°42.685 303.5 3.9 314.1 12.2
2002-04-25 13:02:06 51°11.871 2°42.679 303.7 3.9 314.7 12.4
2002-04-25 13:02:11 51°11.875 2°42.673 304.2 3.9 314.8 12.4
2002-04-25 13:02:16 51°11.879 2°42.667 304.3 3.8 315.4 12.5
2002-04-25 13:02:21 51°11.882 2°42.661 304.5 3.8 315.5 12.5
2002-04-25 13:02:26 51°11.886 2°42.655 304.8 3.8 315.5 12.5
2002-04-25 13:02:31 51°11.89 2°42.649 304.8 3.8 315.2 12.6
2002-04-25 13:02:36 51°11.894 2°42.644 304.7 3.7 315.4 12.7
2002-04-25 13:02:41 51°11.897 2°42.638 304 3.6 315 12.7
2002-04-25 13:02:46 51°11.9 2°42.633 302.3 3.5 313.7 12.8
2002-04-25 13:02:51 51°11.904 2°42.627 299.8 3.4 312.5 12.9
2002-04-25 13:02:56 51°11.906 2°42.622 297 3.2 310.7 12.9
2002-04-25 13:03:01 51°11.909 2°42.617 294.2 3.1 308.7 12.9
2002-04-25 13:03:06 51°11.911 2°42.612 290.7 2.9 306.1 13
2002-04-25 13:03:11 51°11.913 2°42.607 286.5 2.7 302.8 13
2002-04-25 13:03:16 51°11.914 2°42.602 282.5 2.5 299.6 13.1
2002-04-25 13:03:21 51°11.916 2°42.597 278.3 2.3 295 13.1
2002-04-25 13:03:26 51°11.916 2°42.593 274.2 2.1 290.2 13.2
2002-04-25 13:03:31 51°11.917 2°42.589 270.5 2 287.3 13.2
2002-04-25 13:03:36 51°11.918 2°42.585 266.7 1.9 283 13.2
2002-04-25 13:03:41 51°11.918 2°42.581 263.2 1.8 279.3 13.2
2002-04-25 13:03:46 51°11.918 2°42.577 259.7 1.7 274.7 13.2
2002-04-25 13:03:51 51°11.917 2°42.574 255.7 1.6 268.5 13.2
2002-04-25 13:03:56 51°11.917 2°42.57 251 1.6 263.8 13.3
2002-04-25 13:04:01 51°11.916 2°42.567 247.2 1.7 254.9 13.3
2002-04-25 13:04:06 51°11.915 2°42.563 243.2 1.7 247 13.4
2002-04-25 13:04:11 51°11.914 2°42.559 239.5 1.8 242.7 13.3
2002-04-25 13:04:16 51°11.912 2°42.556 236.8 1.9 237.9 13.4
2002-04-25 13:04:20 51°11.91 2°42.553 234.3 2 232.9 13.4
2002-04-25 13:04:26 51°11.908 2°42.549 232 2.1 228.7 13.3
2002-04-25 13:04:31 51°11.906 2°42.545 229.5 2.3 225.9 13.3
2002-04-25 13:04:36 51°11.903 2°42.542 227.2 2.3 222.4 13.3
2002-04-25 13:04:41 51°11.9 2°42.539 224.5 2.5 218.7 13.4
2002-04-25 13:04:46 51°11.897 2°42.535 221.8 2.5 214.6 13.2
2002-04-25 13:04:51 51°11.894 2°42.533 219.2 2.6 211.8 13.2
2002-04-25 13:04:56 51°11.891 2°42.53 216.3 2.7 209.2 13.3
2002-04-25 13:05:01 51°11.887 2°42.527 213.5 2.7 205 13.2
2002-04-25 13:05:06 51°11.883 2°42.525 210.3 2.8 201.5 13.3
2002-04-25 13:05:11 51°11.88 2°42.523 207.8 2.9 197.7 13.2
2002-04-25 13:05:16 51°11.876 2°42.522 205.2 2.9 195.4 13.1
2002-04-25 13:05:21 51°11.872 2°42.521 203.5 2.9 192.4 13.1
2002-04-25 13:05:26 51°11.868 2°42.519 202.2 2.9 190.8 13.1
2002-04-25 13:05:31 51°11.864 2°42.518 201.2 3 189.4 13
2002-04-25 13:05:36 51°11.86 2°42.518 200.2 3 188 12.7
2002-04-25 13:05:41 51°11.856 2°42.517 199.5 3 187.8 12.9
2002-04-25 13:05:46 51°11.852 2°42.516 199.7 3 186.5 12.9
2002-04-25 13:05:51 51°11.847 2°42.515 200.2 3 187 12.8
2002-04-25 13:05:56 51°11.843 2°42.515 201.3 2.9 187.8 12.9
2002-04-25 13:06:00 51°11.84 2°42.514 202.3 2.9 189.1 12.8
2002-04-25 13:06:06 51°11.836 2°42.513 204 2.8 190.2 12.8
2002-04-25 13:06:11 51°11.832 2°42.511 205.5 2.8 192.1 12.7
2002-04-25 13:06:16 51°11.829 2°42.509 207.7 2.7 193.6 12.8
2002-04-25 13:06:21 51°11.825 2°42.507 209.5 2.6 196.3 12.7
2002-04-25 13:06:26 51°11.822 2°42.506 211.2 2.6 198.6 12.7
2002-04-25 13:06:31 51°11.819 2°42.504 212.7 2.5 199.8 12.7
2002-04-25 13:06:36 51°11.816 2°42.501 214.5 2.5 202.1 12.7
2002-04-25 13:06:40 51°11.813 2°42.5 215.8 2.5 203.4 12.6
2002-04-25 13:06:46 51°11.81 2°42.497 216.8 2.4 204.7 12.6
2002-04-25 13:06:51 51°11.807 2°42.495 217.2 2.4 205.3 12.6
2002-04-25 13:06:56 51°11.804 2°42.492 217 2.4 205.2 12.6
2002-04-25 13:07:01 51°11.801 2°42.49 216.5 2.4 204.4 12.6
2002-04-25 13:07:06 51°11.798 2°42.488 215.5 2.4 203.3 12.5
2002-04-25 13:07:11 51°11.795 2°42.486 214.7 2.3 203.3 12.5
2002-04-25 13:07:16 51°11.792 2°42.485 213.7 2.3 202.4 12.5
2002-04-25 13:07:21 51°11.789 2°42.483 212.8 2.3 201.4 12.4
2002-04-25 13:07:26 51°11.786 2°42.481 212 2.3 200 12.5
2002-04-25 13:07:31 51°11.783 2°42.479 211 2.3 199.3 12.4
2002-04-25 13:07:36 51°11.78 2°42.477 210 2.3 198 12.4
2002-04-25 13:07:41 51°11.777 2°42.476 209.3 2.3 196.6 12.4
2002-04-25 13:07:46 51°11.773 2°42.475 208.3 2.4 195.6 12.4
2002-04-25 13:07:51 51°11.77 2°42.474 207.2 2.4 193.9 12.4
2002-04-25 13:07:56 51°11.767 2°42.472 206.2 2.4 192.8 12.3
2002-04-25 13:08:01 51°11.764 2°42.471 205.3 2.4 191.2 12.3
2002-04-25 13:08:06 51°11.76 2°42.471 203.8 2.4 189.7 12.2
2002-04-25 13:08:11 51°11.757 2°42.47 202.7 2.4 188 12.3
2002-04-25 13:08:16 51°11.754 2°42.469 201.5 2.4 186.6 12.2
2002-04-25 13:08:20 51°11.751 2°42.469 200.5 2.4 184.9 12.2